Matagami Airport
CYNM : now visible

Airfield :











YOU CAN JOIN US ON...

 
LOGIN :

Register | Disclaimer

   EN    FR    IT 

 









Legend :    VFR   Marginal VFR   IFR   Intensive IFR   Very Intensive IFR
Visi :
Ceiling :
>= 8 km
>= 3000ft
5 to 8 km
1000 to 3000 ft
1500m to 5 km
500 to 1000 ft
800 to 1500m
200 to 500 ft
< 800m
< 200 ft
Symbols :   Thunderstorms  Fog  Heavy snow  Heavy precipitations  Wind > 20 kt






- Airport Elevation : 918 ft
- IATA code : YNM


CYNM - Matagami

CURRENT METAR :
  • 241042Z AUTO 22005KT 2 1/4SM -SN BKN010 BKN014 OVC025 00/00 A2948 RMK VIS VRB 1 1/2-3 SLP996

EXPIRED METARs :
  • 241025Z AUTO 21006KT 190V260 4SM -SN SCT008 BKN014 OVC025 00/00 A2947 RMK SLP995
  • 241022Z AUTO 22007KT 190V260 4SM -SN BKN008 BKN014 OVC025 00/00 A2947 RMK SLP995
  • 241001Z AUTO 20005KT 3SM -SN BKN008 OVC014 00/00 A2947 RMK SLP994
  • 240948Z AUTO 20008KT 3SM -SN BKN006 OVC016 00/00 A2947 RMK ICG PAST HR SLP994
  • 240935Z AUTO 20006KT 2 1/2SM -SN BKN006 OVC009 00/00 A2947 RMK ICG INTMT SLP994
  • 240913Z AUTO 20008KT 1 1/2SM -SN BKN006 OVC015 00/00 A2947 RMK ICG SLP993
  • 240902Z AUTO 19007KT 1 1/4SM -SN BKN006 OVC015 00/00 A2946 RMK ICG SLP992
  • 240847Z AUTO 19008KT 1 3/4SM -SN FEW008 BKN018 OVC031 00/M00 A2947 RMK VIS VRB 1 1/4-2 1/2 ICG SLP993
  • 240833Z AUTO 20007KT 2 1/4SM -SN FEW014 OVC031 00/M00 A2947 RMK VIS VRB 1 1/2-3 SLP994
  • 240814Z AUTO 19008KT 5SM -SN -UP FEW016 SCT027 BKN045 OVC067 01/M00 A2947 RMK SLP995
  • 240808Z AUTO 19008KT 6SM -RA -UP BR FEW018 OVC060 01/M00 A2947 RMK SLP995
  • 240751Z AUTO 19007KT 8SM -SN -UP SCT024 BKN040 OVC060 00/M00 A2948 RMK SLP996

TAF N/A



MET'MAP, your aeronautical weather chart ! - Copyright ORBIFLY December 2007 - Disclaimer

ORBIFLY MET'MAP TEAM :

Programming & Development : Alexandra Zaïnal
Concept & original design : Baudouin d'Aumeries
Assistance for programming : Marc-Olivier Méhu
Technical & hardware support : Manuel Goepfert

Contact : metmap@orbifly.com




SOURCES & CREDITS :

   NOAA       Earth
Advisory